sensor_id;sensor_type;location;lat;lon;timestamp;temperature;humidity
13610;DHT22;6876;50.788;4.940;2022-11-30T00:01:39;6.90;99.90
13610;DHT22;6876;50.788;4.940;2022-11-30T00:04:28;6.90;99.90
13610;DHT22;6876;50.788;4.940;2022-11-30T00:07:15;6.80;99.90
13610;DHT22;6876;50.788;4.940;2022-11-30T00:10:02;6.80;99.90
13610;DHT22;6876;50.788;4.940;2022-11-30T00:12:50;6.80;99.90
13610;DHT22;6876;50.788;4.940;2022-11-30T00:15:37;6.80;99.90
13610;DHT22;6876;50.788;4.940;2022-11-30T00:18:24;6.80;99.90
13610;DHT22;6876;50.788;4.940;2022-11-30T00:21:14;6.80;99.90
13610;DHT22;6876;50.788;4.940;2022-11-30T00:24:01;6.80;99.90
13610;DHT22;6876;50.788;4.940;2022-11-30T00:26:50;6.80;99.90
13610;DHT22;6876;50.788;4.940;2022-11-30T00:29:37;6.80;99.90
13610;DHT22;6876;50.788;4.940;2022-11-30T00:32:25;6.80;99.90
13610;DHT22;6876;50.788;4.940;2022-11-30T00:35:12;6.80;99.90
13610;DHT22;6876;50.788;4.940;2022-11-30T00:38:02;6.80;99.90
13610;DHT22;6876;50.788;4.940;2022-11-30T00:40:49;6.80;99.90
13610;DHT22;6876;50.788;4.940;2022-11-30T00:43:36;6.80;99.90
13610;DHT22;6876;50.788;4.940;2022-11-30T00:46:23;6.80;99.90
13610;DHT22;6876;50.788;4.940;2022-11-30T00:49:11;6.70;99.90
13610;DHT22;6876;50.788;4.940;2022-11-30T00:51:58;6.70;99.90
13610;DHT22;6876;50.788;4.940;2022-11-30T00:54:46;6.70;99.90
13610;DHT22;6876;50.788;4.940;2022-11-30T00:57:34;6.80;99.90
13610;DHT22;6876;50.788;4.940;2022-11-30T01:00:21;6.80;99.90
13610;DHT22;6876;50.788;4.940;2022-11-30T01:03:08;6.80;99.90
13610;DHT22;6876;50.788;4.940;2022-11-30T01:06:00;6.70;99.90
13610;DHT22;6876;50.788;4.940;2022-11-30T01:08:48;6.70;99.90
13610;DHT22;6876;50.788;4.940;2022-11-30T01:11:37;6.70;99.90
13610;DHT22;6876;50.788;4.940;2022-11-30T01:14:24;6.80;99.90
13610;DHT22;6876;50.788;4.940;2022-11-30T01:17:12;6.70;99.90
13610;DHT22;6876;50.788;4.940;2022-11-30T01:19:59;6.70;99.90
13610;DHT22;6876;50.788;4.940;2022-11-30T01:22:46;6.70;99.90
13610;DHT22;6876;50.788;4.940;2022-11-30T01:25:34;6.70;99.90
13610;DHT22;6876;50.788;4.940;2022-11-30T01:28:22;6.70;99.90
13610;DHT22;6876;50.788;4.940;2022-11-30T01:31:11;6.70;99.90
13610;DHT22;6876;50.788;4.940;2022-11-30T01:33:59;6.70;99.90
13610;DHT22;6876;50.788;4.940;2022-11-30T01:36:47;6.60;99.90
13610;DHT22;6876;50.788;4.940;2022-11-30T01:39:34;6.60;99.90
13610;DHT22;6876;50.788;4.940;2022-11-30T01:42:21;6.70;99.90
13610;DHT22;6876;50.788;4.940;2022-11-30T01:45:11;6.70;99.90
13610;DHT22;6876;50.788;4.940;2022-11-30T01:47:59;6.60;99.90
13610;DHT22;6876;50.788;4.940;2022-11-30T01:50:46;6.60;99.90
13610;DHT22;6876;50.788;4.940;2022-11-30T01:53:34;6.60;99.90
13610;DHT22;6876;50.788;4.940;2022-11-30T01:56:21;6.70;99.90
13610;DHT22;6876;50.788;4.940;2022-11-30T01:59:09;6.60;99.90
13610;DHT22;6876;50.788;4.940;2022-11-30T02:01:58;6.70;99.90
13610;DHT22;6876;50.788;4.940;2022-11-30T02:04:45;6.70;99.90
13610;DHT22;6876;50.788;4.940;2022-11-30T02:07:32;6.70;99.90
13610;DHT22;6876;50.788;4.940;2022-11-30T02:10:24;6.70;99.90
13610;DHT22;6876;50.788;4.940;2022-11-30T02:13:45;6.70;99.90
13610;DHT22;6876;50.788;4.940;2022-11-30T02:16:46;6.60;99.90
13610;DHT22;6876;50.788;4.940;2022-11-30T02:20:02;6.60;99.90
13610;DHT22;6876;50.788;4.940;2022-11-30T02:23:33;6.60;99.90
13610;DHT22;6876;50.788;4.940;2022-11-30T02:26:35;6.60;99.90
13610;DHT22;6876;50.788;4.940;2022-11-30T02:29:29;6.50;99.90
13610;DHT22;6876;50.788;4.940;2022-11-30T02:32:23;6.50;99.90
13610;DHT22;6876;50.788;4.940;2022-11-30T02:35:13;6.50;99.90
13610;DHT22;6876;50.788;4.940;2022-11-30T02:38:03;6.60;99.90
13610;DHT22;6876;50.788;4.940;2022-11-30T02:40:50;6.60;99.90
13610;DHT22;6876;50.788;4.940;2022-11-30T02:43:37;6.60;99.90
13610;DHT22;6876;50.788;4.940;2022-11-30T02:46:32;6.60;99.90
13610;DHT22;6876;50.788;4.940;2022-11-30T02:49:27;6.60;99.90
13610;DHT22;6876;50.788;4.940;2022-11-30T02:52:16;6.70;99.90
13610;DHT22;6876;50.788;4.940;2022-11-30T02:55:08;6.60;99.90
13610;DHT22;6876;50.788;4.940;2022-11-30T02:57:55;6.60;99.90
13610;DHT22;6876;50.788;4.940;2022-11-30T03:00:42;6.50;99.90
13610;DHT22;6876;50.788;4.940;2022-11-30T03:03:31;6.60;99.90
13610;DHT22;6876;50.788;4.940;2022-11-30T03:06:19;6.50;99.90
13610;DHT22;6876;50.788;4.940;2022-11-30T03:09:06;6.40;99.90
13610;DHT22;6876;50.788;4.940;2022-11-30T03:11:53;6.40;99.90
13610;DHT22;6876;50.788;4.940;2022-11-30T03:14:41;6.50;99.90
13610;DHT22;6876;50.788;4.940;2022-11-30T03:17:28;6.50;99.90
13610;DHT22;6876;50.788;4.940;2022-11-30T03:20:16;6.40;99.90
13610;DHT22;6876;50.788;4.940;2022-11-30T03:23:04;6.40;99.90
13610;DHT22;6876;50.788;4.940;2022-11-30T03:25:56;6.40;99.90
13610;DHT22;6876;50.788;4.940;2022-11-30T03:28:43;6.40;99.90
13610;DHT22;6876;50.788;4.940;2022-11-30T03:31:30;6.40;99.90
13610;DHT22;6876;50.788;4.940;2022-11-30T03:34:18;6.50;99.90
13610;DHT22;6876;50.788;4.940;2022-11-30T03:37:06;6.40;99.90
13610;DHT22;6876;50.788;4.940;2022-11-30T03:39:54;6.30;99.90
13610;DHT22;6876;50.788;4.940;2022-11-30T03:42:41;6.30;99.90
13610;DHT22;6876;50.788;4.940;2022-11-30T03:45:28;6.30;99.90
13610;DHT22;6876;50.788;4.940;2022-11-30T03:48:15;6.30;99.90
13610;DHT22;6876;50.788;4.940;2022-11-30T03:51:03;6.40;99.90
13610;DHT22;6876;50.788;4.940;2022-11-30T03:53:52;6.30;99.90
13610;DHT22;6876;50.788;4.940;2022-11-30T03:56:39;6.30;99.90
13610;DHT22;6876;50.788;4.940;2022-11-30T03:59:26;6.30;99.90
13610;DHT22;6876;50.788;4.940;2022-11-30T04:02:14;6.20;99.90
13610;DHT22;6876;50.788;4.940;2022-11-30T04:05:01;6.20;99.90
13610;DHT22;6876;50.788;4.940;2022-11-30T04:07:48;6.30;99.90
13610;DHT22;6876;50.788;4.940;2022-11-30T04:10:36;6.20;99.90
13610;DHT22;6876;50.788;4.940;2022-11-30T04:13:24;6.20;99.90
13610;DHT22;6876;50.788;4.940;2022-11-30T04:16:12;6.30;99.90
13610;DHT22;6876;50.788;4.940;2022-11-30T04:18:59;6.30;99.90
13610;DHT22;6876;50.788;4.940;2022-11-30T04:21:47;6.20;99.90
13610;DHT22;6876;50.788;4.940;2022-11-30T04:24:36;6.20;99.90
13610;DHT22;6876;50.788;4.940;2022-11-30T04:27:24;6.20;99.90
13610;DHT22;6876;50.788;4.940;2022-11-30T04:30:14;6.20;99.90
13610;DHT22;6876;50.788;4.940;2022-11-30T04:33:02;6.20;99.90
13610;DHT22;6876;50.788;4.940;2022-11-30T04:35:52;6.20;99.90
13610;DHT22;6876;50.788;4.940;2022-11-30T04:38:40;6.30;99.90
13610;DHT22;6876;50.788;4.940;2022-11-30T04:41:27;6.20;99.90
13610;DHT22;6876;50.788;4.940;2022-11-30T04:44:16;6.20;99.90
13610;DHT22;6876;50.788;4.940;2022-11-30T04:47:03;6.20;99.90
13610;DHT22;6876;50.788;4.940;2022-11-30T04:49:50;6.30;99.90
13610;DHT22;6876;50.788;4.940;2022-11-30T04:52:38;6.30;99.90
13610;DHT22;6876;50.788;4.940;2022-11-30T04:55:25;6.30;99.90
13610;DHT22;6876;50.788;4.940;2022-11-30T04:58:12;6.30;99.90
13610;DHT22;6876;50.788;4.940;2022-11-30T05:01:01;6.30;99.90
13610;DHT22;6876;50.788;4.940;2022-11-30T05:03:48;6.30;99.90
13610;DHT22;6876;50.788;4.940;2022-11-30T05:06:35;6.30;99.90
13610;DHT22;6876;50.788;4.940;2022-11-30T05:09:22;6.30;99.90
13610;DHT22;6876;50.788;4.940;2022-11-30T05:12:09;6.30;99.90
13610;DHT22;6876;50.788;4.940;2022-11-30T05:14:57;6.30;99.90
13610;DHT22;6876;50.788;4.940;2022-11-30T05:17:45;6.30;99.90
13610;DHT22;6876;50.788;4.940;2022-11-30T05:20:32;6.30;99.90
13610;DHT22;6876;50.788;4.940;2022-11-30T05:23:20;6.30;99.90
13610;DHT22;6876;50.788;4.940;2022-11-30T05:26:07;6.30;99.90
13610;DHT22;6876;50.788;4.940;2022-11-30T05:28:54;6.40;99.90
13610;DHT22;6876;50.788;4.940;2022-11-30T05:31:42;6.30;99.90
13610;DHT22;6876;50.788;4.940;2022-11-30T05:34:30;6.30;99.90
13610;DHT22;6876;50.788;4.940;2022-11-30T05:37:17;6.30;99.90
13610;DHT22;6876;50.788;4.940;2022-11-30T05:40:06;6.30;99.90
13610;DHT22;6876;50.788;4.940;2022-11-30T05:42:54;6.30;99.90
13610;DHT22;6876;50.788;4.940;2022-11-30T05:45:42;6.30;99.90
13610;DHT22;6876;50.788;4.940;2022-11-30T05:48:29;6.30;99.90
13610;DHT22;6876;50.788;4.940;2022-11-30T05:51:19;6.30;99.90
13610;DHT22;6876;50.788;4.940;2022-11-30T05:54:06;6.30;99.90
13610;DHT22;6876;50.788;4.940;2022-11-30T05:56:54;6.40;99.90
13610;DHT22;6876;50.788;4.940;2022-11-30T05:59:41;6.30;99.90
13610;DHT22;6876;50.788;4.940;2022-11-30T06:02:28;6.30;99.90
13610;DHT22;6876;50.788;4.940;2022-11-30T06:05:15;6.30;99.90
13610;DHT22;6876;50.788;4.940;2022-11-30T06:08:04;6.30;99.90
13610;DHT22;6876;50.788;4.940;2022-11-30T06:10:52;6.30;99.90
13610;DHT22;6876;50.788;4.940;2022-11-30T06:13:39;6.30;99.90
13610;DHT22;6876;50.788;4.940;2022-11-30T06:16:26;6.30;99.90
13610;DHT22;6876;50.788;4.940;2022-11-30T06:19:14;6.40;99.90
13610;DHT22;6876;50.788;4.940;2022-11-30T06:22:01;6.40;99.90
13610;DHT22;6876;50.788;4.940;2022-11-30T06:24:50;6.40;99.90
13610;DHT22;6876;50.788;4.940;2022-11-30T06:27:37;6.40;99.90
13610;DHT22;6876;50.788;4.940;2022-11-30T06:30:24;6.40;99.90
13610;DHT22;6876;50.788;4.940;2022-11-30T06:33:11;6.40;99.90
13610;DHT22;6876;50.788;4.940;2022-11-30T06:35:59;6.40;99.90
13610;DHT22;6876;50.788;4.940;2022-11-30T06:38:46;6.40;99.90
13610;DHT22;6876;50.788;4.940;2022-11-30T06:41:34;6.40;99.90
13610;DHT22;6876;50.788;4.940;2022-11-30T06:44:22;6.40;99.90
13610;DHT22;6876;50.788;4.940;2022-11-30T06:47:09;6.40;99.90
13610;DHT22;6876;50.788;4.940;2022-11-30T06:49:56;6.40;99.90
13610;DHT22;6876;50.788;4.940;2022-11-30T06:52:43;6.40;99.90
13610;DHT22;6876;50.788;4.940;2022-11-30T06:55:31;6.40;99.90
13610;DHT22;6876;50.788;4.940;2022-11-30T06:58:21;6.40;99.90
13610;DHT22;6876;50.788;4.940;2022-11-30T07:01:10;6.40;99.90
13610;DHT22;6876;50.788;4.940;2022-11-30T07:03:58;6.30;99.90
13610;DHT22;6876;50.788;4.940;2022-11-30T07:06:45;6.40;99.90
13610;DHT22;6876;50.788;4.940;2022-11-30T07:09:32;6.30;99.90
13610;DHT22;6876;50.788;4.940;2022-11-30T07:12:19;6.30;99.90
13610;DHT22;6876;50.788;4.940;2022-11-30T07:15:09;6.40;99.90
13610;DHT22;6876;50.788;4.940;2022-11-30T07:17:59;6.40;99.90
13610;DHT22;6876;50.788;4.940;2022-11-30T07:20:46;6.40;99.90
13610;DHT22;6876;50.788;4.940;2022-11-30T07:23:33;6.50;99.90
13610;DHT22;6876;50.788;4.940;2022-11-30T07:26:38;6.50;99.90
13610;DHT22;6876;50.788;4.940;2022-11-30T07:29:25;6.40;99.90
13610;DHT22;6876;50.788;4.940;2022-11-30T07:32:14;6.40;99.90
13610;DHT22;6876;50.788;4.940;2022-11-30T07:35:02;6.40;99.90
13610;DHT22;6876;50.788;4.940;2022-11-30T07:37:49;6.40;99.90
13610;DHT22;6876;50.788;4.940;2022-11-30T07:40:36;6.40;99.90
13610;DHT22;6876;50.788;4.940;2022-11-30T07:43:23;6.40;99.90
13610;DHT22;6876;50.788;4.940;2022-11-30T07:46:12;6.40;99.90
13610;DHT22;6876;50.788;4.940;2022-11-30T07:49:01;6.50;99.90
13610;DHT22;6876;50.788;4.940;2022-11-30T07:51:49;6.50;99.90
13610;DHT22;6876;50.788;4.940;2022-11-30T07:54:36;6.50;99.90
13610;DHT22;6876;50.788;4.940;2022-11-30T07:57:23;6.50;99.90
13610;DHT22;6876;50.788;4.940;2022-11-30T08:00:11;6.50;99.90
13610;DHT22;6876;50.788;4.940;2022-11-30T08:02:59;6.50;99.90
13610;DHT22;6876;50.788;4.940;2022-11-30T08:05:47;6.50;99.90
13610;DHT22;6876;50.788;4.940;2022-11-30T08:08:35;6.50;99.90
13610;DHT22;6876;50.788;4.940;2022-11-30T08:11:25;6.50;99.90
13610;DHT22;6876;50.788;4.940;2022-11-30T08:14:13;6.60;99.90
13610;DHT22;6876;50.788;4.940;2022-11-30T08:17:00;6.60;99.90
13610;DHT22;6876;50.788;4.940;2022-11-30T08:19:47;6.50;99.90
13610;DHT22;6876;50.788;4.940;2022-11-30T08:22:35;6.50;99.90
13610;DHT22;6876;50.788;4.940;2022-11-30T08:25:23;6.50;99.90
13610;DHT22;6876;50.788;4.940;2022-11-30T08:28:10;6.50;99.90
13610;DHT22;6876;50.788;4.940;2022-11-30T08:30:58;6.50;99.90
13610;DHT22;6876;50.788;4.940;2022-11-30T08:33:46;6.60;99.90
13610;DHT22;6876;50.788;4.940;2022-11-30T08:36:34;6.60;99.90
13610;DHT22;6876;50.788;4.940;2022-11-30T08:39:23;6.70;99.90
13610;DHT22;6876;50.788;4.940;2022-11-30T08:42:12;6.60;99.90
13610;DHT22;6876;50.788;4.940;2022-11-30T08:44:59;6.60;99.90
13610;DHT22;6876;50.788;4.940;2022-11-30T08:47:46;6.60;99.90
13610;DHT22;6876;50.788;4.940;2022-11-30T08:50:34;6.70;99.90
13610;DHT22;6876;50.788;4.940;2022-11-30T08:53:21;6.60;99.90
13610;DHT22;6876;50.788;4.940;2022-11-30T08:56:11;6.70;99.90
13610;DHT22;6876;50.788;4.940;2022-11-30T08:58:59;6.70;99.90
13610;DHT22;6876;50.788;4.940;2022-11-30T09:01:46;6.70;99.90
13610;DHT22;6876;50.788;4.940;2022-11-30T09:04:33;6.80;99.90
13610;DHT22;6876;50.788;4.940;2022-11-30T09:07:21;6.80;99.90
13610;DHT22;6876;50.788;4.940;2022-11-30T09:10:09;6.90;99.90
13610;DHT22;6876;50.788;4.940;2022-11-30T09:12:57;6.90;99.90
13610;DHT22;6876;50.788;4.940;2022-11-30T09:15:53;7.10;99.90
13610;DHT22;6876;50.788;4.940;2022-11-30T09:18:40;7.10;99.90
13610;DHT22;6876;50.788;4.940;2022-11-30T09:21:27;7.10;99.90
13610;DHT22;6876;50.788;4.940;2022-11-30T09:24:15;7.00;99.90
13610;DHT22;6876;50.788;4.940;2022-11-30T09:27:02;7.10;99.90
13610;DHT22;6876;50.788;4.940;2022-11-30T09:29:51;7.10;99.90
13610;DHT22;6876;50.788;4.940;2022-11-30T09:32:38;7.20;99.90
13610;DHT22;6876;50.788;4.940;2022-11-30T09:35:25;7.30;99.90
13610;DHT22;6876;50.788;4.940;2022-11-30T09:38:12;7.30;99.90
13610;DHT22;6876;50.788;4.940;2022-11-30T09:41:03;7.20;99.90
13610;DHT22;6876;50.788;4.940;2022-11-30T09:43:57;7.20;99.90
13610;DHT22;6876;50.788;4.940;2022-11-30T09:46:58;7.30;99.90
13610;DHT22;6876;50.788;4.940;2022-11-30T09:49:48;7.40;99.90
13610;DHT22;6876;50.788;4.940;2022-11-30T09:52:39;7.30;99.90
13610;DHT22;6876;50.788;4.940;2022-11-30T09:55:30;7.30;99.90
13610;DHT22;6876;50.788;4.940;2022-11-30T09:58:24;7.30;99.90
13610;DHT22;6876;50.788;4.940;2022-11-30T10:01:16;7.30;99.90
13610;DHT22;6876;50.788;4.940;2022-11-30T10:04:10;7.30;99.90
13610;DHT22;6876;50.788;4.940;2022-11-30T10:07:13;7.40;99.90
13610;DHT22;6876;50.788;4.940;2022-11-30T10:10:13;7.40;99.90
13610;DHT22;6876;50.788;4.940;2022-11-30T10:13:15;7.50;99.90
13610;DHT22;6876;50.788;4.940;2022-11-30T10:16:14;7.50;99.90
13610;DHT22;6876;50.788;4.940;2022-11-30T10:19:14;7.60;99.90
13610;DHT22;6876;50.788;4.940;2022-11-30T10:22:10;7.60;99.90
13610;DHT22;6876;50.788;4.940;2022-11-30T10:25:09;7.60;99.90
13610;DHT22;6876;50.788;4.940;2022-11-30T10:28:03;7.70;99.90
13610;DHT22;6876;50.788;4.940;2022-11-30T10:30:53;7.80;99.90
13610;DHT22;6876;50.788;4.940;2022-11-30T10:33:44;7.90;99.90
13610;DHT22;6876;50.788;4.940;2022-11-30T10:36:36;8.00;99.90
13610;DHT22;6876;50.788;4.940;2022-11-30T10:39:30;7.90;99.90
13610;DHT22;6876;50.788;4.940;2022-11-30T10:42:21;7.90;99.90
13610;DHT22;6876;50.788;4.940;2022-11-30T10:45:13;7.90;99.90
13610;DHT22;6876;50.788;4.940;2022-11-30T10:48:05;7.90;99.90
13610;DHT22;6876;50.788;4.940;2022-11-30T10:50:54;8.00;99.90
13610;DHT22;6876;50.788;4.940;2022-11-30T10:53:42;8.00;99.90
13610;DHT22;6876;50.788;4.940;2022-11-30T10:56:29;7.90;99.90
13610;DHT22;6876;50.788;4.940;2022-11-30T10:59:20;7.80;99.90
13610;DHT22;6876;50.788;4.940;2022-11-30T11:02:37;7.90;99.90
13610;DHT22;6876;50.788;4.940;2022-11-30T11:05:26;7.80;99.90
13610;DHT22;6876;50.788;4.940;2022-11-30T11:08:17;7.70;99.90
13610;DHT22;6876;50.788;4.940;2022-11-30T11:11:25;7.70;99.90
13610;DHT22;6876;50.788;4.940;2022-11-30T11:14:16;7.80;99.90
13610;DHT22;6876;50.788;4.940;2022-11-30T11:17:05;7.90;99.90
13610;DHT22;6876;50.788;4.940;2022-11-30T11:19:52;8.00;99.90
13610;DHT22;6876;50.788;4.940;2022-11-30T11:22:42;8.00;99.90
13610;DHT22;6876;50.788;4.940;2022-11-30T11:25:33;8.00;99.90
13610;DHT22;6876;50.788;4.940;2022-11-30T11:28:23;7.90;99.90
13610;DHT22;6876;50.788;4.940;2022-11-30T11:31:32;7.90;99.90
13610;DHT22;6876;50.788;4.940;2022-11-30T11:34:23;8.00;99.90
13610;DHT22;6876;50.788;4.940;2022-11-30T11:37:19;8.00;99.90
13610;DHT22;6876;50.788;4.940;2022-11-30T11:40:14;8.00;99.90
13610;DHT22;6876;50.788;4.940;2022-11-30T11:43:03;8.00;99.90
13610;DHT22;6876;50.788;4.940;2022-11-30T11:46:10;7.90;99.90
13610;DHT22;6876;50.788;4.940;2022-11-30T11:49:00;7.80;99.90
13610;DHT22;6876;50.788;4.940;2022-11-30T11:51:58;7.80;99.90
13610;DHT22;6876;50.788;4.940;2022-11-30T11:54:49;8.00;99.90
13610;DHT22;6876;50.788;4.940;2022-11-30T11:57:40;8.10;99.90
13610;DHT22;6876;50.788;4.940;2022-11-30T12:00:31;8.20;99.90
13610;DHT22;6876;50.788;4.940;2022-11-30T12:03:32;8.50;99.90
13610;DHT22;6876;50.788;4.940;2022-11-30T12:06:23;8.90;99.90
13610;DHT22;6876;50.788;4.940;2022-11-30T12:09:14;9.10;99.90
13610;DHT22;6876;50.788;4.940;2022-11-30T12:12:02;9.10;99.90
13610;DHT22;6876;50.788;4.940;2022-11-30T12:14:49;8.80;99.90
13610;DHT22;6876;50.788;4.940;2022-11-30T12:17:45;8.60;99.90
13610;DHT22;6876;50.788;4.940;2022-11-30T12:20:47;8.60;99.90
13610;DHT22;6876;50.788;4.940;2022-11-30T12:24:09;8.40;99.90
13610;DHT22;6876;50.788;4.940;2022-11-30T12:27:08;8.50;99.90
13610;DHT22;6876;50.788;4.940;2022-11-30T12:30:04;8.40;99.90
13610;DHT22;6876;50.788;4.940;2022-11-30T12:33:10;8.30;99.90
13610;DHT22;6876;50.788;4.940;2022-11-30T12:36:03;8.50;99.90
13610;DHT22;6876;50.788;4.940;2022-11-30T12:38:57;8.70;99.90
13610;DHT22;6876;50.788;4.940;2022-11-30T12:41:49;8.70;99.90
13610;DHT22;6876;50.788;4.940;2022-11-30T12:44:46;8.70;99.90
13610;DHT22;6876;50.788;4.940;2022-11-30T12:47:44;8.60;99.90
13610;DHT22;6876;50.788;4.940;2022-11-30T12:50:43;8.60;99.90
13610;DHT22;6876;50.788;4.940;2022-11-30T12:53:37;8.60;99.90
13610;DHT22;6876;50.788;4.940;2022-11-30T12:56:32;8.50;99.90
13610;DHT22;6876;50.788;4.940;2022-11-30T12:59:27;8.40;99.90
13610;DHT22;6876;50.788;4.940;2022-11-30T13:02:39;8.30;99.90
13610;DHT22;6876;50.788;4.940;2022-11-30T13:05:31;8.40;99.90
13610;DHT22;6876;50.788;4.940;2022-11-30T13:08:24;8.50;99.90
13610;DHT22;6876;50.788;4.940;2022-11-30T13:11:17;8.60;99.90
13610;DHT22;6876;50.788;4.940;2022-11-30T13:14:10;8.70;99.90
13610;DHT22;6876;50.788;4.940;2022-11-30T13:17:01;9.00;99.90
13610;DHT22;6876;50.788;4.940;2022-11-30T13:19:54;9.20;99.90
13610;DHT22;6876;50.788;4.940;2022-11-30T13:22:49;9.20;99.90
13610;DHT22;6876;50.788;4.940;2022-11-30T13:25:44;9.10;99.90
13610;DHT22;6876;50.788;4.940;2022-11-30T13:28:48;9.10;99.90
13610;DHT22;6876;50.788;4.940;2022-11-30T13:31:38;9.20;99.90
13610;DHT22;6876;50.788;4.940;2022-11-30T13:34:28;9.00;99.90
13610;DHT22;6876;50.788;4.940;2022-11-30T13:37:17;8.90;99.90
13610;DHT22;6876;50.788;4.940;2022-11-30T13:40:18;8.90;99.90
13610;DHT22;6876;50.788;4.940;2022-11-30T13:43:14;8.90;99.90
13610;DHT22;6876;50.788;4.940;2022-11-30T13:46:06;8.80;99.90
13610;DHT22;6876;50.788;4.940;2022-11-30T13:49:18;8.90;99.90
13610;DHT22;6876;50.788;4.940;2022-11-30T13:52:06;8.80;99.90
13610;DHT22;6876;50.788;4.940;2022-11-30T13:54:55;8.70;99.90
13610;DHT22;6876;50.788;4.940;2022-11-30T13:58:05;8.70;99.90
13610;DHT22;6876;50.788;4.940;2022-11-30T14:01:27;8.70;99.90
13610;DHT22;6876;50.788;4.940;2022-11-30T14:04:31;8.60;99.90
13610;DHT22;6876;50.788;4.940;2022-11-30T14:07:39;8.50;99.90
13610;DHT22;6876;50.788;4.940;2022-11-30T14:10:28;8.60;99.90
13610;DHT22;6876;50.788;4.940;2022-11-30T14:13:30;8.60;99.90
13610;DHT22;6876;50.788;4.940;2022-11-30T14:16:22;8.50;99.90
13610;DHT22;6876;50.788;4.940;2022-11-30T14:19:11;8.50;99.90
13610;DHT22;6876;50.788;4.940;2022-11-30T14:21:59;8.50;99.90
13610;DHT22;6876;50.788;4.940;2022-11-30T14:24:47;8.40;99.90
13610;DHT22;6876;50.788;4.940;2022-11-30T14:27:35;8.30;99.90
13610;DHT22;6876;50.788;4.940;2022-11-30T14:30:23;8.30;99.90
13610;DHT22;6876;50.788;4.940;2022-11-30T14:33:14;8.30;99.90
13610;DHT22;6876;50.788;4.940;2022-11-30T14:36:06;8.10;99.90
13610;DHT22;6876;50.788;4.940;2022-11-30T14:38:53;8.00;99.90
13610;DHT22;6876;50.788;4.940;2022-11-30T14:41:41;8.00;99.90
13610;DHT22;6876;50.788;4.940;2022-11-30T14:44:33;7.90;99.90
13610;DHT22;6876;50.788;4.940;2022-11-30T14:47:22;7.80;99.90
13610;DHT22;6876;50.788;4.940;2022-11-30T14:50:20;7.80;99.90
13610;DHT22;6876;50.788;4.940;2022-11-30T14:53:19;7.70;99.90
13610;DHT22;6876;50.788;4.940;2022-11-30T14:56:15;7.70;99.90
13610;DHT22;6876;50.788;4.940;2022-11-30T14:59:15;7.60;99.90
13610;DHT22;6876;50.788;4.940;2022-11-30T15:02:10;7.60;99.90
13610;DHT22;6876;50.788;4.940;2022-11-30T15:05:00;7.60;99.90
13610;DHT22;6876;50.788;4.940;2022-11-30T15:07:48;7.60;99.90
13610;DHT22;6876;50.788;4.940;2022-11-30T15:10:37;7.60;99.90
13610;DHT22;6876;50.788;4.940;2022-11-30T15:13:25;7.60;99.90
13610;DHT22;6876;50.788;4.940;2022-11-30T15:16:18;7.60;99.90
13610;DHT22;6876;50.788;4.940;2022-11-30T15:19:19;7.60;99.90
13610;DHT22;6876;50.788;4.940;2022-11-30T15:22:20;7.50;99.90
13610;DHT22;6876;50.788;4.940;2022-11-30T15:25:11;7.50;99.90
13610;DHT22;6876;50.788;4.940;2022-11-30T15:28:01;7.50;99.90
13610;DHT22;6876;50.788;4.940;2022-11-30T15:30:53;7.40;99.90
13610;DHT22;6876;50.788;4.940;2022-11-30T15:33:43;7.30;99.90
13610;DHT22;6876;50.788;4.940;2022-11-30T15:36:33;7.10;99.90
13610;DHT22;6876;50.788;4.940;2022-11-30T15:39:22;7.00;99.90
13610;DHT22;6876;50.788;4.940;2022-11-30T15:42:18;6.90;99.90
13610;DHT22;6876;50.788;4.940;2022-11-30T15:45:12;6.80;99.90
13610;DHT22;6876;50.788;4.940;2022-11-30T15:48:01;6.80;99.90
13610;DHT22;6876;50.788;4.940;2022-11-30T15:50:49;6.90;99.90
13610;DHT22;6876;50.788;4.940;2022-11-30T15:53:47;6.80;99.90
13610;DHT22;6876;50.788;4.940;2022-11-30T15:56:35;6.90;99.90
13610;DHT22;6876;50.788;4.940;2022-11-30T15:59:24;7.00;99.90
13610;DHT22;6876;50.788;4.940;2022-11-30T16:02:30;7.00;99.90
13610;DHT22;6876;50.788;4.940;2022-11-30T16:05:23;7.10;99.90
13610;DHT22;6876;50.788;4.940;2022-11-30T16:08:15;7.00;99.90
13610;DHT22;6876;50.788;4.940;2022-11-30T16:11:04;7.00;99.90
13610;DHT22;6876;50.788;4.940;2022-11-30T16:13:51;7.00;99.90
13610;DHT22;6876;50.788;4.940;2022-11-30T16:16:38;7.00;99.90
13610;DHT22;6876;50.788;4.940;2022-11-30T16:19:27;7.10;99.90
13610;DHT22;6876;50.788;4.940;2022-11-30T16:22:15;7.00;99.90
13610;DHT22;6876;50.788;4.940;2022-11-30T16:25:02;7.10;99.90
13610;DHT22;6876;50.788;4.940;2022-11-30T16:27:50;7.10;99.90
13610;DHT22;6876;50.788;4.940;2022-11-30T16:30:38;7.10;99.90
13610;DHT22;6876;50.788;4.940;2022-11-30T16:33:25;7.10;99.90
13610;DHT22;6876;50.788;4.940;2022-11-30T16:36:16;7.10;99.90
13610;DHT22;6876;50.788;4.940;2022-11-30T16:39:04;7.10;99.90
13610;DHT22;6876;50.788;4.940;2022-11-30T16:41:51;7.10;99.90
13610;DHT22;6876;50.788;4.940;2022-11-30T16:44:38;7.10;99.90
13610;DHT22;6876;50.788;4.940;2022-11-30T16:47:25;7.10;99.90
13610;DHT22;6876;50.788;4.940;2022-11-30T16:50:13;7.10;99.90
13610;DHT22;6876;50.788;4.940;2022-11-30T16:53:02;7.10;99.90
13610;DHT22;6876;50.788;4.940;2022-11-30T16:55:50;7.10;99.90
13610;DHT22;6876;50.788;4.940;2022-11-30T16:58:37;7.10;99.90
13610;DHT22;6876;50.788;4.940;2022-11-30T17:01:28;7.00;99.90
13610;DHT22;6876;50.788;4.940;2022-11-30T17:04:19;6.90;99.90
13610;DHT22;6876;50.788;4.940;2022-11-30T17:07:07;6.80;99.90
13610;DHT22;6876;50.788;4.940;2022-11-30T17:09:56;6.70;99.90
13610;DHT22;6876;50.788;4.940;2022-11-30T17:12:43;6.70;99.90
13610;DHT22;6876;50.788;4.940;2022-11-30T17:15:30;6.50;99.90
13610;DHT22;6876;50.788;4.940;2022-11-30T17:18:18;6.50;99.90
13610;DHT22;6876;50.788;4.940;2022-11-30T17:21:05;6.40;99.90
13610;DHT22;6876;50.788;4.940;2022-11-30T17:23:53;6.30;99.90
13610;DHT22;6876;50.788;4.940;2022-11-30T17:26:41;6.30;99.90
13610;DHT22;6876;50.788;4.940;2022-11-30T17:29:29;6.10;99.90
13610;DHT22;6876;50.788;4.940;2022-11-30T17:32:16;6.10;99.90
13610;DHT22;6876;50.788;4.940;2022-11-30T17:35:03;6.00;99.90
13610;DHT22;6876;50.788;4.940;2022-11-30T17:37:52;5.90;99.90
13610;DHT22;6876;50.788;4.940;2022-11-30T17:40:39;5.90;99.90
13610;DHT22;6876;50.788;4.940;2022-11-30T17:43:29;5.80;99.90
13610;DHT22;6876;50.788;4.940;2022-11-30T17:46:17;5.80;99.90
13610;DHT22;6876;50.788;4.940;2022-11-30T17:49:04;5.80;99.90
13610;DHT22;6876;50.788;4.940;2022-11-30T17:51:51;5.70;99.90
13610;DHT22;6876;50.788;4.940;2022-11-30T17:54:39;5.50;99.90
13610;DHT22;6876;50.788;4.940;2022-11-30T17:57:26;5.40;99.90
13610;DHT22;6876;50.788;4.940;2022-11-30T18:00:16;5.40;99.90
13610;DHT22;6876;50.788;4.940;2022-11-30T18:03:03;5.50;99.90
13610;DHT22;6876;50.788;4.940;2022-11-30T18:05:50;5.60;99.90
13610;DHT22;6876;50.788;4.940;2022-11-30T18:08:38;5.70;99.90
13610;DHT22;6876;50.788;4.940;2022-11-30T18:11:25;5.80;99.90
13610;DHT22;6876;50.788;4.940;2022-11-30T18:14:13;5.90;99.90
13610;DHT22;6876;50.788;4.940;2022-11-30T18:17:01;5.90;99.90
13610;DHT22;6876;50.788;4.940;2022-11-30T18:19:48;5.90;99.90
13610;DHT22;6876;50.788;4.940;2022-11-30T18:22:36;5.80;99.90
13610;DHT22;6876;50.788;4.940;2022-11-30T18:25:23;5.80;99.90
13610;DHT22;6876;50.788;4.940;2022-11-30T18:28:10;5.80;99.90
13610;DHT22;6876;50.788;4.940;2022-11-30T18:30:58;5.70;99.90
13610;DHT22;6876;50.788;4.940;2022-11-30T18:33:46;5.70;99.90